sensor_id;sensor_type;location;lat;lon;timestamp;pressure;altitude;pressure_sealevel;temperature;humidity
36062;BME280;22123;52.412;20.970;2023-08-07T00:02:15;98544.41;;;12.43;100.00
36062;BME280;22123;52.412;20.970;2023-08-07T00:04:41;98668.59;;;13.09;100.00
36062;BME280;22123;52.412;20.970;2023-08-07T00:07:06;99009.06;;;15.20;100.00
36062;BME280;22123;52.412;20.970;2023-08-07T00:09:32;98707.63;;;13.25;100.00
36062;BME280;22123;52.412;20.970;2023-08-07T00:11:58;98794.94;;;13.67;100.00
36062;BME280;22123;52.412;20.970;2023-08-07T00:14:24;98880.72;;;14.14;100.00
36062;BME280;22123;52.412;20.970;2023-08-07T00:16:52;98749.22;;;13.23;100.00
36062;BME280;22123;52.412;20.970;2023-08-07T00:19:18;98903.06;;;14.21;100.00
36062;BME280;22123;52.412;20.970;2023-08-07T00:21:44;98978.81;;;14.75;100.00
36062;BME280;22123;52.412;20.970;2023-08-07T00:24:10;98941.44;;;14.42;100.00
36062;BME280;22123;52.412;20.970;2023-08-07T00:26:39;98829.06;;;13.80;100.00
36062;BME280;22123;52.412;20.970;2023-08-07T00:29:05;98844.09;;;13.88;100.00
36062;BME280;22123;52.412;20.970;2023-08-07T00:31:31;98872.34;;;14.04;100.00
36062;BME280;22123;52.412;20.970;2023-08-07T00:33:59;98763.22;;;13.32;100.00
36062;BME280;22123;52.412;20.970;2023-08-07T00:36:26;99018.38;;;14.88;100.00
36062;BME280;22123;52.412;20.970;2023-08-07T00:38:52;98976.72;;;14.66;100.00
36062;BME280;22123;52.412;20.970;2023-08-07T00:41:18;98585.97;;;12.23;100.00
36062;BME280;22123;52.412;20.970;2023-08-07T00:43:44;98829.84;;;13.69;100.00
36062;BME280;22123;52.412;20.970;2023-08-07T00:46:10;98882.22;;;13.98;100.00
36062;BME280;22123;52.412;20.970;2023-08-07T00:48:36;98851.34;;;13.64;100.00
36062;BME280;22123;52.412;20.970;2023-08-07T00:51:02;98629.38;;;12.22;100.00
36062;BME280;22123;52.412;20.970;2023-08-07T00:53:28;98549.91;;;11.87;100.00
36062;BME280;22123;52.412;20.970;2023-08-07T00:55:54;98889.06;;;14.01;100.00
36062;BME280;22123;52.412;20.970;2023-08-07T00:58:26;99002.94;;;14.65;100.00
36062;BME280;22123;52.412;20.970;2023-08-07T01:00:51;98747.38;;;12.94;100.00
36062;BME280;22123;52.412;20.970;2023-08-07T01:03:17;98536.84;;;11.72;100.00
36062;BME280;22123;52.412;20.970;2023-08-07T01:05:43;98580.78;;;11.91;100.00
36062;BME280;22123;52.412;20.970;2023-08-07T01:08:15;98803.41;;;13.29;100.00
36062;BME280;22123;52.412;20.970;2023-08-07T01:13:54;98851.25;;;13.70;100.00
36062;BME280;22123;52.412;20.970;2023-08-07T01:16:46;98987.13;;;14.50;100.00
36062;BME280;22123;52.412;20.970;2023-08-07T01:19:24;98722.69;;;12.90;100.00
36062;BME280;22123;52.412;20.970;2023-08-07T01:21:57;98849.47;;;13.64;100.00
36062;BME280;22123;52.412;20.970;2023-08-07T01:24:29;98821.34;;;13.53;100.00
36062;BME280;22123;52.412;20.970;2023-08-07T01:26:56;98775.88;;;13.20;100.00
36062;BME280;22123;52.412;20.970;2023-08-07T01:29:40;98851.50;;;13.69;100.00
36062;BME280;22123;52.412;20.970;2023-08-07T01:32:09;98699.63;;;12.76;100.00
36062;BME280;22123;52.412;20.970;2023-08-07T01:34:41;98788.22;;;13.28;100.00
36062;BME280;22123;52.412;20.970;2023-08-07T01:37:10;98711.13;;;12.71;100.00
36062;BME280;22123;52.412;20.970;2023-08-07T01:39:39;99008.19;;;14.48;100.00
36062;BME280;22123;52.412;20.970;2023-08-07T01:42:05;98780.13;;;12.97;100.00
36062;BME280;22123;52.412;20.970;2023-08-07T01:44:31;98662.03;;;12.32;100.00
36062;BME280;22123;52.412;20.970;2023-08-07T01:46:57;98768.25;;;12.86;100.00
36062;BME280;22123;52.412;20.970;2023-08-07T01:49:24;98972.97;;;14.24;100.00
36062;BME280;22123;52.412;20.970;2023-08-07T01:51:50;98790.13;;;12.97;100.00
36062;BME280;22123;52.412;20.970;2023-08-07T01:54:16;98794.09;;;12.94;100.00
36062;BME280;22123;52.412;20.970;2023-08-07T01:56:43;98768.94;;;12.82;100.00
36062;BME280;22123;52.412;20.970;2023-08-07T01:59:12;98867.84;;;13.44;100.00
36062;BME280;22123;52.412;20.970;2023-08-07T02:01:38;98539.25;;;11.43;100.00
36062;BME280;22123;52.412;20.970;2023-08-07T02:04:06;98727.97;;;12.55;100.00
36062;BME280;22123;52.412;20.970;2023-08-07T02:06:32;98630.47;;;12.02;100.00
36062;BME280;22123;52.412;20.970;2023-08-07T02:09:00;98739.28;;;12.63;100.00
36062;BME280;22123;52.412;20.970;2023-08-07T02:11:25;98976.22;;;14.03;100.00
36062;BME280;22123;52.412;20.970;2023-08-07T02:13:51;98852.03;;;13.29;100.00
36062;BME280;22123;52.412;20.970;2023-08-07T02:16:17;98557.75;;;11.40;100.00
36062;BME280;22123;52.412;20.970;2023-08-07T02:18:43;98956.06;;;13.87;100.00
36062;BME280;22123;52.412;20.970;2023-08-07T02:21:09;98982.97;;;14.12;100.00
36062;BME280;22123;52.412;20.970;2023-08-07T02:23:35;98855.50;;;13.17;100.00
36062;BME280;22123;52.412;20.970;2023-08-07T02:26:04;98964.13;;;13.75;100.00
36062;BME280;22123;52.412;20.970;2023-08-07T02:28:31;98734.97;;;12.25;100.00
36062;BME280;22123;52.412;20.970;2023-08-07T02:31:00;98842.66;;;12.82;100.00
36062;BME280;22123;52.412;20.970;2023-08-07T02:33:33;98595.38;;;11.28;100.00
36062;BME280;22123;52.412;20.970;2023-08-07T02:36:00;98831.19;;;12.87;100.00
36062;BME280;22123;52.412;20.970;2023-08-07T02:38:26;98962.75;;;13.54;100.00
36062;BME280;22123;52.412;20.970;2023-08-07T02:40:55;98975.00;;;13.56;100.00
36062;BME280;22123;52.412;20.970;2023-08-07T02:43:21;98928.97;;;13.26;100.00
36062;BME280;22123;52.412;20.970;2023-08-07T02:45:47;98904.03;;;13.12;100.00
36062;BME280;22123;52.412;20.970;2023-08-07T02:48:13;98926.72;;;13.23;100.00
36062;BME280;22123;52.412;20.970;2023-08-07T02:50:41;99020.63;;;13.83;100.00
36062;BME280;22123;52.412;20.970;2023-08-07T02:53:07;98946.88;;;13.46;100.00
36062;BME280;22123;52.412;20.970;2023-08-07T02:55:33;98959.06;;;13.48;100.00
36062;BME280;22123;52.412;20.970;2023-08-07T02:57:59;98906.25;;;13.15;100.00
36062;BME280;22123;52.412;20.970;2023-08-07T03:00:25;98895.41;;;13.03;100.00
36062;BME280;22123;52.412;20.970;2023-08-07T03:02:50;99031.03;;;13.98;100.00
36062;BME280;22123;52.412;20.970;2023-08-07T03:05:16;98883.41;;;12.99;100.00
36062;BME280;22123;52.412;20.970;2023-08-07T03:07:44;98894.09;;;13.06;100.00
36062;BME280;22123;52.412;20.970;2023-08-07T03:10:11;98819.56;;;12.49;100.00
36062;BME280;22123;52.412;20.970;2023-08-07T03:12:36;99036.97;;;13.88;100.00
36062;BME280;22123;52.412;20.970;2023-08-07T03:15:03;98860.75;;;12.82;100.00
36062;BME280;22123;52.412;20.970;2023-08-07T03:17:29;98855.41;;;12.75;100.00
36062;BME280;22123;52.412;20.970;2023-08-07T03:19:55;98886.69;;;13.01;100.00
36062;BME280;22123;52.412;20.970;2023-08-07T03:22:21;98871.91;;;12.85;100.00
36062;BME280;22123;52.412;20.970;2023-08-07T03:24:48;98822.97;;;12.63;100.00
36062;BME280;22123;52.412;20.970;2023-08-07T03:27:14;98937.31;;;13.43;100.00
36062;BME280;22123;52.412;20.970;2023-08-07T03:29:42;98845.81;;;12.79;100.00
36062;BME280;22123;52.412;20.970;2023-08-07T03:32:09;98763.34;;;12.28;100.00
36062;BME280;22123;52.412;20.970;2023-08-07T03:34:34;98953.91;;;13.47;100.00
36062;BME280;22123;52.412;20.970;2023-08-07T03:37:00;98837.22;;;12.70;100.00
36062;BME280;22123;52.412;20.970;2023-08-07T03:39:26;98776.72;;;12.23;100.00
36062;BME280;22123;52.412;20.970;2023-08-07T03:41:53;98992.72;;;13.52;100.00
36062;BME280;22123;52.412;20.970;2023-08-07T03:44:19;99029.31;;;13.85;100.00
36062;BME280;22123;52.412;20.970;2023-08-07T03:46:45;98859.78;;;12.76;100.00
36062;BME280;22123;52.412;20.970;2023-08-07T03:49:11;98889.16;;;12.84;100.00
36062;BME280;22123;52.412;20.970;2023-08-07T03:51:37;98935.59;;;13.30;100.00
36062;BME280;22123;52.412;20.970;2023-08-07T03:54:03;98954.56;;;13.23;100.00
36062;BME280;22123;52.412;20.970;2023-08-07T03:56:29;98820.72;;;12.42;100.00
36062;BME280;22123;52.412;20.970;2023-08-07T03:58:55;99009.41;;;13.49;100.00
36062;BME280;22123;52.412;20.970;2023-08-07T04:01:20;98885.41;;;12.67;100.00
36062;BME280;22123;52.412;20.970;2023-08-07T04:03:47;98920.31;;;12.87;100.00
36062;BME280;22123;52.412;20.970;2023-08-07T04:06:12;99072.00;;;13.83;100.00
36062;BME280;22123;52.412;20.970;2023-08-07T04:08:38;98888.84;;;12.56;100.00
36062;BME280;22123;52.412;20.970;2023-08-07T04:11:14;99079.97;;;13.78;100.00
36062;BME280;22123;52.412;20.970;2023-08-07T04:13:53;98873.19;;;12.46;100.00
36062;BME280;22123;52.412;20.970;2023-08-07T04:16:22;98625.94;;;10.90;100.00
36062;BME280;22123;52.412;20.970;2023-08-07T04:18:48;99081.56;;;13.67;100.00
36062;BME280;22123;52.412;20.970;2023-08-07T04:21:22;98604.78;;;10.68;100.00
36062;BME280;22123;52.412;20.970;2023-08-07T04:23:50;98644.41;;;11.11;100.00
36062;BME280;22123;52.412;20.970;2023-08-07T04:26:18;98918.72;;;12.79;100.00
36062;BME280;22123;52.412;20.970;2023-08-07T04:28:49;98782.78;;;11.93;100.00
36062;BME280;22123;52.412;20.970;2023-08-07T04:31:35;98820.38;;;12.13;100.00
36062;BME280;22123;52.412;20.970;2023-08-07T04:34:01;98877.91;;;12.50;100.00
36062;BME280;22123;52.412;20.970;2023-08-07T04:36:32;99106.44;;;13.76;100.00
36062;BME280;22123;52.412;20.970;2023-08-07T04:39:01;98642.16;;;10.83;100.00
36062;BME280;22123;52.412;20.970;2023-08-07T04:41:38;99102.34;;;13.85;100.00
36062;BME280;22123;52.412;20.970;2023-08-07T04:44:09;98665.28;;;11.16;100.00
36062;BME280;22123;52.412;20.970;2023-08-07T04:46:37;98877.53;;;12.47;100.00
36062;BME280;22123;52.412;20.970;2023-08-07T04:49:03;98775.03;;;11.78;100.00
36062;BME280;22123;52.412;20.970;2023-08-07T04:51:32;98928.38;;;12.68;100.00
36062;BME280;22123;52.412;20.970;2023-08-07T04:53:58;98922.34;;;12.73;100.00
36062;BME280;22123;52.412;20.970;2023-08-07T04:56:24;98911.31;;;12.75;100.00
36062;BME280;22123;52.412;20.970;2023-08-07T04:58:55;98764.94;;;11.92;100.00
36062;BME280;22123;52.412;20.970;2023-08-07T05:01:21;98926.44;;;12.94;100.00
36062;BME280;22123;52.412;20.970;2023-08-07T05:03:47;98954.22;;;13.01;100.00
36062;BME280;22123;52.412;20.970;2023-08-07T05:06:23;98988.75;;;13.18;100.00
36062;BME280;22123;52.412;20.970;2023-08-07T05:08:49;99118.69;;;14.09;100.00
36062;BME280;22123;52.412;20.970;2023-08-07T05:11:15;98653.72;;;11.16;100.00
36062;BME280;22123;52.412;20.970;2023-08-07T05:13:41;98739.28;;;11.64;100.00
36062;BME280;22123;52.412;20.970;2023-08-07T05:16:07;98836.59;;;12.31;100.00
36062;BME280;22123;52.412;20.970;2023-08-07T05:18:36;98753.59;;;11.64;100.00
36062;BME280;22123;52.412;20.970;2023-08-07T05:21:02;98968.63;;;13.14;100.00
36062;BME280;22123;52.412;20.970;2023-08-07T05:23:34;98729.56;;;11.63;100.00
36062;BME280;22123;52.412;20.970;2023-08-07T05:26:03;98928.09;;;12.95;100.00
36062;BME280;22123;52.412;20.970;2023-08-07T05:28:32;98783.69;;;11.87;100.00
36062;BME280;22123;52.412;20.970;2023-08-07T05:31:01;98700.84;;;11.25;100.00
36062;BME280;22123;52.412;20.970;2023-08-07T05:33:27;98875.66;;;12.47;100.00
36062;BME280;22123;52.412;20.970;2023-08-07T05:35:53;98706.91;;;11.45;100.00
36062;BME280;22123;52.412;20.970;2023-08-07T05:38:22;99004.66;;;13.45;100.00
36062;BME280;22123;52.412;20.970;2023-08-07T05:40:50;98700.69;;;11.45;100.00
36062;BME280;22123;52.412;20.970;2023-08-07T05:43:19;98667.28;;;11.27;100.00
36062;BME280;22123;52.412;20.970;2023-08-07T05:45:45;98688.72;;;11.41;100.00
36062;BME280;22123;52.412;20.970;2023-08-07T05:48:11;99120.09;;;14.30;100.00
36062;BME280;22123;52.412;20.970;2023-08-07T05:50:45;98694.03;;;11.47;100.00
36062;BME280;22123;52.412;20.970;2023-08-07T05:53:29;98687.09;;;11.40;100.00
36062;BME280;22123;52.412;20.970;2023-08-07T05:56:03;99131.84;;;14.24;100.00
36062;BME280;22123;52.412;20.970;2023-08-07T05:58:38;98720.22;;;11.40;100.00
36062;BME280;22123;52.412;20.970;2023-08-07T06:01:07;98871.22;;;12.34;100.00
36062;BME280;22123;52.412;20.970;2023-08-07T06:03:33;98931.19;;;12.80;100.00
36062;BME280;22123;52.412;20.970;2023-08-07T06:05:59;98619.56;;;10.84;100.00
36062;BME280;22123;52.412;20.970;2023-08-07T06:08:25;98710.72;;;11.38;100.00
36062;BME280;22123;52.412;20.970;2023-08-07T06:10:51;99132.84;;;14.11;100.00
36062;BME280;22123;52.412;20.970;2023-08-07T06:13:17;98767.78;;;11.78;100.00
36062;BME280;22123;52.412;20.970;2023-08-07T06:15:43;98724.19;;;11.63;100.00
36062;BME280;22123;52.412;20.970;2023-08-07T06:18:09;98703.56;;;11.50;100.00
36062;BME280;22123;52.412;20.970;2023-08-07T06:20:35;99132.19;;;14.27;100.00
36062;BME280;22123;52.412;20.970;2023-08-07T06:23:02;99085.81;;;13.94;100.00
36062;BME280;22123;52.412;20.970;2023-08-07T06:25:28;99138.03;;;14.13;100.00
36062;BME280;22123;52.412;20.970;2023-08-07T06:27:54;99108.28;;;13.94;100.00
36062;BME280;22123;52.412;20.970;2023-08-07T06:30:20;99100.56;;;13.79;100.00
36062;BME280;22123;52.412;20.970;2023-08-07T06:32:46;99120.06;;;14.00;100.00
36062;BME280;22123;52.412;20.970;2023-08-07T06:35:30;99110.34;;;13.80;100.00
36062;BME280;22123;52.412;20.970;2023-08-07T06:37:56;99119.41;;;13.86;100.00
36062;BME280;22123;52.412;20.970;2023-08-07T06:40:22;99133.91;;;13.91;100.00
36062;BME280;22123;52.412;20.970;2023-08-07T06:42:48;99096.38;;;13.65;100.00
36062;BME280;22123;52.412;20.970;2023-08-07T06:45:13;99133.09;;;13.91;100.00
36062;BME280;22123;52.412;20.970;2023-08-07T06:47:39;99119.44;;;13.67;100.00
36062;BME280;22123;52.412;20.970;2023-08-07T06:50:05;99163.88;;;13.90;100.00
36062;BME280;22123;52.412;20.970;2023-08-07T06:52:31;99119.94;;;13.57;100.00
36062;BME280;22123;52.412;20.970;2023-08-07T06:54:57;99130.09;;;13.62;100.00
36062;BME280;22123;52.412;20.970;2023-08-07T06:57:23;99093.34;;;13.36;100.00
36062;BME280;22123;52.412;20.970;2023-08-07T06:59:49;99136.09;;;13.64;100.00
36062;BME280;22123;52.412;20.970;2023-08-07T07:02:15;99128.88;;;13.58;100.00
36062;BME280;22123;52.412;20.970;2023-08-07T07:04:41;99138.38;;;13.67;100.00
36062;BME280;22123;52.412;20.970;2023-08-07T07:07:06;99154.72;;;13.72;100.00
36062;BME280;22123;52.412;20.970;2023-08-07T07:09:32;99163.38;;;13.81;100.00
36062;BME280;22123;52.412;20.970;2023-08-07T07:11:58;99134.53;;;13.75;100.00
36062;BME280;22123;52.412;20.970;2023-08-07T07:14:24;99154.16;;;13.89;100.00
36062;BME280;22123;52.412;20.970;2023-08-07T07:16:50;99139.13;;;13.74;100.00
36062;BME280;22123;52.412;20.970;2023-08-07T07:19:16;99128.53;;;13.73;100.00
36062;BME280;22123;52.412;20.970;2023-08-07T07:21:42;99163.75;;;14.03;100.00
36062;BME280;22123;52.412;20.970;2023-08-07T07:24:07;99162.44;;;14.06;100.00
36062;BME280;22123;52.412;20.970;2023-08-07T07:26:33;99172.69;;;14.22;100.00
36062;BME280;22123;52.412;20.970;2023-08-07T07:28:59;99173.69;;;14.40;100.00
36062;BME280;22123;52.412;20.970;2023-08-07T07:31:25;99153.59;;;14.48;100.00
36062;BME280;22123;52.412;20.970;2023-08-07T07:33:51;99168.31;;;14.70;100.00
36062;BME280;22123;52.412;20.970;2023-08-07T07:36:17;99182.81;;;14.76;100.00
36062;BME280;22123;52.412;20.970;2023-08-07T07:38:45;99135.25;;;14.50;100.00
36062;BME280;22123;52.412;20.970;2023-08-07T07:41:11;99181.25;;;14.68;100.00
36062;BME280;22123;52.412;20.970;2023-08-07T07:46:13;99123.88;;;14.41;100.00
36062;BME280;22123;52.412;20.970;2023-08-07T07:48:38;99186.13;;;14.90;100.00
36062;BME280;22123;52.412;20.970;2023-08-07T07:51:05;99194.63;;;14.93;100.00
36062;BME280;22123;52.412;20.970;2023-08-07T07:53:30;99196.19;;;15.01;100.00
36062;BME280;22123;52.412;20.970;2023-08-07T07:56:15;99172.00;;;14.88;100.00
36062;BME280;22123;52.412;20.970;2023-08-07T07:58:59;99144.41;;;14.67;100.00
36062;BME280;22123;52.412;20.970;2023-08-07T08:01:25;99196.56;;;15.05;100.00
36062;BME280;22123;52.412;20.970;2023-08-07T08:03:51;99179.16;;;14.82;100.00
36062;BME280;22123;52.412;20.970;2023-08-07T08:06:17;99188.59;;;14.80;100.00
36062;BME280;22123;52.412;20.970;2023-08-07T08:08:43;99217.84;;;14.89;100.00
36062;BME280;22123;52.412;20.970;2023-08-07T08:11:08;99208.19;;;14.93;100.00
36062;BME280;22123;52.412;20.970;2023-08-07T08:13:34;99182.34;;;14.79;100.00
36062;BME280;22123;52.412;20.970;2023-08-07T08:16:00;99210.59;;;15.13;100.00
36062;BME280;22123;52.412;20.970;2023-08-07T08:18:26;99217.56;;;15.21;100.00
36062;BME280;22123;52.412;20.970;2023-08-07T08:20:51;99216.59;;;15.16;100.00
36062;BME280;22123;52.412;20.970;2023-08-07T08:23:17;99191.56;;;14.90;100.00
36062;BME280;22123;52.412;20.970;2023-08-07T08:25:43;99225.06;;;15.19;100.00
36062;BME280;22123;52.412;20.970;2023-08-07T08:28:09;99186.03;;;14.85;100.00
36062;BME280;22123;52.412;20.970;2023-08-07T08:30:34;99234.88;;;15.20;100.00
36062;BME280;22123;52.412;20.970;2023-08-07T08:33:00;99211.97;;;15.04;100.00
36062;BME280;22123;52.412;20.970;2023-08-07T08:35:26;99236.03;;;15.12;100.00
36062;BME280;22123;52.412;20.970;2023-08-07T08:37:52;99212.88;;;14.86;100.00
36062;BME280;22123;52.412;20.970;2023-08-07T08:40:18;99237.28;;;14.98;100.00
36062;BME280;22123;52.412;20.970;2023-08-07T08:42:45;99214.97;;;14.84;100.00
36062;BME280;22123;52.412;20.970;2023-08-07T08:45:12;99210.31;;;15.03;100.00
36062;BME280;22123;52.412;20.970;2023-08-07T08:47:39;99187.72;;;15.09;100.00
36062;BME280;22123;52.412;20.970;2023-08-07T08:50:10;99185.88;;;15.45;100.00
36062;BME280;22123;52.412;20.970;2023-08-07T08:52:38;99212.91;;;15.88;100.00
36062;BME280;22123;52.412;20.970;2023-08-07T08:55:04;99228.19;;;16.06;100.00
36062;BME280;22123;52.412;20.970;2023-08-07T08:57:30;99190.72;;;15.79;100.00
36062;BME280;22123;52.412;20.970;2023-08-07T08:59:58;99229.88;;;15.95;100.00
36062;BME280;22123;52.412;20.970;2023-08-07T09:02:24;99252.66;;;15.94;100.00
36062;BME280;22123;52.412;20.970;2023-08-07T09:04:50;99229.75;;;15.66;100.00
36062;BME280;22123;52.412;20.970;2023-08-07T09:07:16;99263.75;;;15.80;100.00
36062;BME280;22123;52.412;20.970;2023-08-07T09:09:46;99245.41;;;15.52;100.00
36062;BME280;22123;52.412;20.970;2023-08-07T09:12:20;99219.81;;;15.36;100.00
36062;BME280;22123;52.412;20.970;2023-08-07T09:14:50;99229.03;;;15.35;100.00
36062;BME280;22123;52.412;20.970;2023-08-07T09:17:19;99256.72;;;15.49;100.00
36062;BME280;22123;52.412;20.970;2023-08-07T09:19:46;99272.91;;;15.56;100.00
36062;BME280;22123;52.412;20.970;2023-08-07T09:22:13;99308.75;;;15.70;100.00
36062;BME280;22123;52.412;20.970;2023-08-07T09:24:39;99311.00;;;15.73;100.00
36062;BME280;22123;52.412;20.970;2023-08-07T09:27:06;99314.09;;;15.76;100.00
36062;BME280;22123;52.412;20.970;2023-08-07T09:29:32;99315.31;;;15.80;100.00
36062;BME280;22123;52.412;20.970;2023-08-07T09:32:05;99335.50;;;15.96;100.00
36062;BME280;22123;52.412;20.970;2023-08-07T09:34:31;99322.63;;;15.92;100.00
36062;BME280;22123;52.412;20.970;2023-08-07T09:36:57;99343.63;;;16.08;100.00
36062;BME280;22123;52.412;20.970;2023-08-07T09:39:23;99337.03;;;16.04;100.00
36062;BME280;22123;52.412;20.970;2023-08-07T09:41:51;99346.34;;;16.20;100.00
36062;BME280;22123;52.412;20.970;2023-08-07T09:44:17;99319.53;;;16.12;100.00
36062;BME280;22123;52.412;20.970;2023-08-07T09:46:43;99344.47;;;16.32;100.00
36062;BME280;22123;52.412;20.970;2023-08-07T09:49:09;99328.63;;;16.17;100.00
36062;BME280;22123;52.412;20.970;2023-08-07T09:51:45;99346.34;;;16.20;100.00
36062;BME280;22123;52.412;20.970;2023-08-07T09:54:11;99281.28;;;15.66;100.00
36062;BME280;22123;52.412;20.970;2023-08-07T09:56:36;99353.91;;;16.30;100.00
36062;BME280;22123;52.412;20.970;2023-08-07T09:59:03;99327.00;;;16.16;100.00
36062;BME280;22123;52.412;20.970;2023-08-07T10:01:29;99336.78;;;16.17;100.00
36062;BME280;22123;52.412;20.970;2023-08-07T10:03:55;99354.00;;;16.35;100.00
36062;BME280;22123;52.412;20.970;2023-08-07T10:06:22;99335.13;;;16.28;100.00
36062;BME280;22123;52.412;20.970;2023-08-07T10:08:48;99348.91;;;16.50;100.00
36062;BME280;22123;52.412;20.970;2023-08-07T10:11:15;99274.09;;;16.19;100.00
36062;BME280;22123;52.412;20.970;2023-08-07T10:13:41;99317.19;;;16.92;100.00
36062;BME280;22123;52.412;20.970;2023-08-07T10:16:06;99340.38;;;17.40;100.00
36062;BME280;22123;52.412;20.970;2023-08-07T10:18:33;99295.69;;;17.36;100.00
36062;BME280;22123;52.412;20.970;2023-08-07T10:21:01;99314.66;;;17.48;100.00
36062;BME280;22123;52.412;20.970;2023-08-07T10:23:27;99293.88;;;17.42;100.00
36062;BME280;22123;52.412;20.970;2023-08-07T10:25:54;99341.47;;;17.56;100.00
36062;BME280;22123;52.412;20.970;2023-08-07T10:28:23;99349.81;;;17.83;100.00
36062;BME280;22123;52.412;20.970;2023-08-07T10:30:50;99327.59;;;18.03;100.00
36062;BME280;22123;52.412;20.970;2023-08-07T10:33:17;99330.78;;;18.79;100.00
36062;BME280;22123;52.412;20.970;2023-08-07T10:35:46;99341.72;;;19.55;100.00
36062;BME280;22123;52.412;20.970;2023-08-07T10:38:12;99306.91;;;20.05;100.00
36062;BME280;22123;52.412;20.970;2023-08-07T10:43:39;99325.03;;;20.22;100.00
36062;BME280;22123;52.412;20.970;2023-08-07T10:46:08;99326.03;;;20.05;100.00
36062;BME280;22123;52.412;20.970;2023-08-07T10:48:48;99328.63;;;19.57;100.00
36062;BME280;22123;52.412;20.970;2023-08-07T10:51:19;99332.34;;;19.46;100.00
36062;BME280;22123;52.412;20.970;2023-08-07T10:53:49;99350.19;;;19.32;100.00
36062;BME280;22123;52.412;20.970;2023-08-07T10:56:31;99344.78;;;19.09;100.00
36062;BME280;22123;52.412;20.970;2023-08-07T10:58:57;99342.50;;;18.79;100.00
36062;BME280;22123;52.412;20.970;2023-08-07T11:03:56;99357.97;;;18.96;100.00
36062;BME280;22123;52.412;20.970;2023-08-07T11:06:27;99313.19;;;19.14;100.00
36062;BME280;22123;52.412;20.970;2023-08-07T11:08:54;99313.81;;;19.48;100.00
36062;BME280;22123;52.412;20.970;2023-08-07T11:11:20;99320.59;;;19.45;100.00
36062;BME280;22123;52.412;20.970;2023-08-07T11:13:46;99338.72;;;19.57;100.00
36062;BME280;22123;52.412;20.970;2023-08-07T11:16:12;99297.69;;;20.17;100.00
36062;BME280;22123;52.412;20.970;2023-08-07T11:18:38;99313.34;;;20.84;100.00
36062;BME280;22123;52.412;20.970;2023-08-07T11:21:04;99302.78;;;21.45;100.00
36062;BME280;22123;52.412;20.970;2023-08-07T11:23:31;99348.81;;;22.35;100.00
36062;BME280;22123;52.412;20.970;2023-08-07T11:25:57;99337.59;;;21.85;100.00
36062;BME280;22123;52.412;20.970;2023-08-07T11:28:23;99340.81;;;21.26;100.00
36062;BME280;22123;52.412;20.970;2023-08-07T11:30:51;99343.81;;;21.24;100.00
36062;BME280;22123;52.412;20.970;2023-08-07T11:33:20;99358.28;;;21.14;100.00
36062;BME280;22123;52.412;20.970;2023-08-07T11:35:47;99354.97;;;21.02;100.00
36062;BME280;22123;52.412;20.970;2023-08-07T11:38:28;99321.38;;;20.48;100.00
36062;BME280;22123;52.412;20.970;2023-08-07T11:40:57;99327.31;;;20.40;100.00
36062;BME280;22123;52.412;20.970;2023-08-07T11:43:22;99320.56;;;20.48;100.00
36062;BME280;22123;52.412;20.970;2023-08-07T11:45:49;99321.94;;;20.56;100.00
36062;BME280;22123;52.412;20.970;2023-08-07T11:48:15;99303.97;;;20.17;100.00
36062;BME280;22123;52.412;20.970;2023-08-07T11:50:42;99329.88;;;20.09;100.00
36062;BME280;22123;52.412;20.970;2023-08-07T11:53:08;99351.34;;;19.95;100.00
36062;BME280;22123;52.412;20.970;2023-08-07T11:55:34;99330.94;;;19.43;100.00
36062;BME280;22123;52.412;20.970;2023-08-07T11:58:03;99336.72;;;19.20;100.00
36062;BME280;22123;52.412;20.970;2023-08-07T12:00:29;99325.75;;;18.87;100.00
36062;BME280;22123;52.412;20.970;2023-08-07T12:02:54;99340.47;;;18.69;100.00
36062;BME280;22123;52.412;20.970;2023-08-07T12:05:20;99383.91;;;18.76;100.00
36062;BME280;22123;52.412;20.970;2023-08-07T12:07:47;99384.44;;;18.56;100.00
36062;BME280;22123;52.412;20.970;2023-08-07T12:10:13;99357.16;;;18.34;100.00
36062;BME280;22123;52.412;20.970;2023-08-07T12:12:39;99354.59;;;18.27;100.00
36062;BME280;22123;52.412;20.970;2023-08-07T12:15:08;99383.50;;;18.28;100.00
36062;BME280;22123;52.412;20.970;2023-08-07T12:17:37;99370.16;;;18.10;100.00
36062;BME280;22123;52.412;20.970;2023-08-07T12:20:04;99353.91;;;17.98;100.00
36062;BME280;22123;52.412;20.970;2023-08-07T12:22:31;99358.69;;;17.90;100.00
36062;BME280;22123;52.412;20.970;2023-08-07T12:24:56;99379.03;;;17.88;100.00
36062;BME280;22123;52.412;20.970;2023-08-07T12:27:22;99393.88;;;17.80;100.00
36062;BME280;22123;52.412;20.970;2023-08-07T12:29:48;99429.03;;;17.82;100.00
36062;BME280;22123;52.412;20.970;2023-08-07T12:32:14;99393.56;;;17.48;100.00
36062;BME280;22123;52.412;20.970;2023-08-07T12:34:39;99435.84;;;17.67;100.00
36062;BME280;22123;52.412;20.970;2023-08-07T12:37:05;99423.09;;;17.56;100.00
36062;BME280;22123;52.412;20.970;2023-08-07T12:39:31;99433.06;;;17.50;100.00
36062;BME280;22123;52.412;20.970;2023-08-07T12:41:57;99420.34;;;17.39;100.00
36062;BME280;22123;52.412;20.970;2023-08-07T12:44:23;99429.03;;;17.53;100.00
36062;BME280;22123;52.412;20.970;2023-08-07T12:46:49;99434.66;;;17.63;100.00
36062;BME280;22123;52.412;20.970;2023-08-07T12:49:17;99421.09;;;17.80;100.00
36062;BME280;22123;52.412;20.970;2023-08-07T12:51:43;99417.75;;;18.07;100.00
36062;BME280;22123;52.412;20.970;2023-08-07T12:54:09;99449.34;;;18.42;100.00